Metar z połowy godziny Komunikat METAR ze strony awiacja.imgw.pl Metar G00 EPRZ METAR EPRZ 212230Z 07006KT CAVOK 17/14 Q1010 =